sensor_id;sensor_type;location;lat;lon;timestamp;P1;durP1;ratioP1;P2;durP2;ratioP2
33844;SDS011;20145;43.118;25.694;2022-07-10T00:00:24;7.93;;;7.13;;
33844;SDS011;20145;43.118;25.694;2022-07-10T00:02:51;7.60;;;6.97;;
33844;SDS011;20145;43.118;25.694;2022-07-10T00:05:17;8.13;;;7.28;;
33844;SDS011;20145;43.118;25.694;2022-07-10T00:07:44;7.90;;;6.72;;
33844;SDS011;20145;43.118;25.694;2022-07-10T00:10:09;7.85;;;7.05;;
33844;SDS011;20145;43.118;25.694;2022-07-10T00:12:35;8.20;;;7.05;;
33844;SDS011;20145;43.118;25.694;2022-07-10T00:15:03;7.90;;;7.10;;
33844;SDS011;20145;43.118;25.694;2022-07-10T00:17:30;7.75;;;7.10;;
33844;SDS011;20145;43.118;25.694;2022-07-10T00:19:56;8.10;;;7.38;;
33844;SDS011;20145;43.118;25.694;2022-07-10T00:22:22;9.05;;;8.25;;
33844;SDS011;20145;43.118;25.694;2022-07-10T00:24:48;10.05;;;8.20;;
33844;SDS011;20145;43.118;25.694;2022-07-10T00:27:15;9.23;;;8.32;;
33844;SDS011;20145;43.118;25.694;2022-07-10T00:29:44;8.70;;;7.90;;
33844;SDS011;20145;43.118;25.694;2022-07-10T00:32:10;8.88;;;7.95;;
33844;SDS011;20145;43.118;25.694;2022-07-10T00:34:36;8.75;;;7.80;;
33844;SDS011;20145;43.118;25.694;2022-07-10T00:37:02;9.10;;;8.23;;
33844;SDS011;20145;43.118;25.694;2022-07-10T00:39:28;8.55;;;7.80;;
33844;SDS011;20145;43.118;25.694;2022-07-10T00:41:54;8.63;;;7.88;;
33844;SDS011;20145;43.118;25.694;2022-07-10T00:44:30;9.27;;;8.38;;
33844;SDS011;20145;43.118;25.694;2022-07-10T00:46:56;9.05;;;8.25;;
33844;SDS011;20145;43.118;25.694;2022-07-10T00:49:21;8.38;;;7.68;;
33844;SDS011;20145;43.118;25.694;2022-07-10T00:51:47;8.70;;;7.93;;
33844;SDS011;20145;43.118;25.694;2022-07-10T00:54:12;8.75;;;8.00;;
33844;SDS011;20145;43.118;25.694;2022-07-10T00:56:38;8.80;;;7.97;;
33844;SDS011;20145;43.118;25.694;2022-07-10T00:59:05;10.23;;;8.13;;
33844;SDS011;20145;43.118;25.694;2022-07-10T01:01:32;8.95;;;8.13;;
33844;SDS011;20145;43.118;25.694;2022-07-10T01:03:58;9.13;;;7.95;;
33844;SDS011;20145;43.118;25.694;2022-07-10T01:06:23;8.07;;;7.20;;
33844;SDS011;20145;43.118;25.694;2022-07-10T01:08:49;8.73;;;7.75;;
33844;SDS011;20145;43.118;25.694;2022-07-10T01:11:15;7.47;;;6.72;;
33844;SDS011;20145;43.118;25.694;2022-07-10T01:13:42;7.57;;;6.88;;
33844;SDS011;20145;43.118;25.694;2022-07-10T01:16:09;8.85;;;7.55;;
33844;SDS011;20145;43.118;25.694;2022-07-10T01:18:35;7.20;;;6.60;;
33844;SDS011;20145;43.118;25.694;2022-07-10T01:21:01;6.95;;;6.35;;
33844;SDS011;20145;43.118;25.694;2022-07-10T01:23:26;7.43;;;6.63;;
33844;SDS011;20145;43.118;25.694;2022-07-10T01:25:52;6.88;;;6.30;;
33844;SDS011;20145;43.118;25.694;2022-07-10T01:28:18;7.50;;;6.90;;
33844;SDS011;20145;43.118;25.694;2022-07-10T01:30:46;7.47;;;6.88;;
33844;SDS011;20145;43.118;25.694;2022-07-10T01:33:13;7.50;;;6.80;;
33844;SDS011;20145;43.118;25.694;2022-07-10T01:35:39;7.75;;;7.05;;
33844;SDS011;20145;43.118;25.694;2022-07-10T01:38:05;7.22;;;6.45;;
33844;SDS011;20145;43.118;25.694;2022-07-10T01:40:30;8.82;;;7.25;;
33844;SDS011;20145;43.118;25.694;2022-07-10T01:42:56;7.25;;;6.55;;
33844;SDS011;20145;43.118;25.694;2022-07-10T01:45:22;6.95;;;6.35;;
33844;SDS011;20145;43.118;25.694;2022-07-10T01:47:47;9.55;;;7.40;;
33844;SDS011;20145;43.118;25.694;2022-07-10T01:50:13;8.02;;;6.97;;
33844;SDS011;20145;43.118;25.694;2022-07-10T01:52:39;7.45;;;6.78;;
33844;SDS011;20145;43.118;25.694;2022-07-10T01:55:05;8.98;;;7.07;;
33844;SDS011;20145;43.118;25.694;2022-07-10T01:57:31;7.60;;;7.00;;
33844;SDS011;20145;43.118;25.694;2022-07-10T01:59:57;7.30;;;6.70;;
33844;SDS011;20145;43.118;25.694;2022-07-10T02:02:22;7.93;;;7.13;;
33844;SDS011;20145;43.118;25.694;2022-07-10T02:04:48;7.50;;;6.72;;
33844;SDS011;20145;43.118;25.694;2022-07-10T02:07:15;7.03;;;6.43;;
33844;SDS011;20145;43.118;25.694;2022-07-10T02:09:42;8.23;;;7.22;;
33844;SDS011;20145;43.118;25.694;2022-07-10T02:12:08;8.23;;;7.25;;
33844;SDS011;20145;43.118;25.694;2022-07-10T02:14:35;7.70;;;6.90;;
33844;SDS011;20145;43.118;25.694;2022-07-10T02:17:01;7.30;;;6.60;;
33844;SDS011;20145;43.118;25.694;2022-07-10T02:19:27;8.18;;;7.03;;
33844;SDS011;20145;43.118;25.694;2022-07-10T02:21:53;7.18;;;6.57;;
33844;SDS011;20145;43.118;25.694;2022-07-10T02:24:18;7.97;;;7.05;;
33844;SDS011;20145;43.118;25.694;2022-07-10T02:26:44;7.05;;;6.45;;
33844;SDS011;20145;43.118;25.694;2022-07-10T02:29:10;7.43;;;6.82;;
33844;SDS011;20145;43.118;25.694;2022-07-10T02:31:35;7.47;;;6.78;;
33844;SDS011;20145;43.118;25.694;2022-07-10T02:34:06;8.32;;;6.80;;
33844;SDS011;20145;43.118;25.694;2022-07-10T02:36:32;7.43;;;6.70;;
33844;SDS011;20145;43.118;25.694;2022-07-10T02:38:58;8.60;;;6.90;;
33844;SDS011;20145;43.118;25.694;2022-07-10T02:41:24;7.70;;;6.97;;
33844;SDS011;20145;43.118;25.694;2022-07-10T02:43:50;9.85;;;6.70;;
33844;SDS011;20145;43.118;25.694;2022-07-10T02:46:16;7.47;;;6.63;;
33844;SDS011;20145;43.118;25.694;2022-07-10T02:48:41;7.10;;;6.50;;
33844;SDS011;20145;43.118;25.694;2022-07-10T02:51:07;7.75;;;7.05;;
33844;SDS011;20145;43.118;25.694;2022-07-10T02:53:32;6.68;;;6.15;;
33844;SDS011;20145;43.118;25.694;2022-07-10T02:55:58;6.80;;;6.15;;
33844;SDS011;20145;43.118;25.694;2022-07-10T02:58:23;6.75;;;6.05;;
33844;SDS011;20145;43.118;25.694;2022-07-10T03:00:49;11.30;;;5.88;;
33844;SDS011;20145;43.118;25.694;2022-07-10T03:03:14;6.63;;;5.40;;
33844;SDS011;20145;43.118;25.694;2022-07-10T03:05:43;6.95;;;6.28;;
33844;SDS011;20145;43.118;25.694;2022-07-10T03:08:11;8.07;;;6.32;;
33844;SDS011;20145;43.118;25.694;2022-07-10T03:10:37;6.43;;;5.82;;
33844;SDS011;20145;43.118;25.694;2022-07-10T03:13:03;7.95;;;6.15;;
33844;SDS011;20145;43.118;25.694;2022-07-10T03:15:29;6.95;;;6.03;;
33844;SDS011;20145;43.118;25.694;2022-07-10T03:17:55;8.10;;;6.70;;
33844;SDS011;20145;43.118;25.694;2022-07-10T03:20:21;7.13;;;5.95;;
33844;SDS011;20145;43.118;25.694;2022-07-10T03:22:46;6.70;;;6.03;;
33844;SDS011;20145;43.118;25.694;2022-07-10T03:25:12;6.80;;;6.30;;
33844;SDS011;20145;43.118;25.694;2022-07-10T03:27:38;7.43;;;5.82;;
33844;SDS011;20145;43.118;25.694;2022-07-10T03:30:04;6.10;;;5.50;;
33844;SDS011;20145;43.118;25.694;2022-07-10T03:32:31;7.68;;;6.45;;
33844;SDS011;20145;43.118;25.694;2022-07-10T03:34:57;6.40;;;5.80;;
33844;SDS011;20145;43.118;25.694;2022-07-10T03:37:22;6.70;;;6.00;;
33844;SDS011;20145;43.118;25.694;2022-07-10T03:39:48;6.60;;;5.75;;
33844;SDS011;20145;43.118;25.694;2022-07-10T03:42:14;7.50;;;5.82;;
33844;SDS011;20145;43.118;25.694;2022-07-10T03:44:39;6.45;;;5.95;;
33844;SDS011;20145;43.118;25.694;2022-07-10T03:47:05;6.55;;;5.95;;
33844;SDS011;20145;43.118;25.694;2022-07-10T03:49:31;7.45;;;5.80;;
33844;SDS011;20145;43.118;25.694;2022-07-10T03:52:00;6.15;;;5.65;;
33844;SDS011;20145;43.118;25.694;2022-07-10T03:54:26;5.97;;;5.35;;
33844;SDS011;20145;43.118;25.694;2022-07-10T03:56:53;5.60;;;5.10;;
33844;SDS011;20145;43.118;25.694;2022-07-10T03:59:37;6.70;;;5.97;;
33844;SDS011;20145;43.118;25.694;2022-07-10T04:02:03;5.93;;;5.10;;
33844;SDS011;20145;43.118;25.694;2022-07-10T04:04:29;5.72;;;5.30;;
33844;SDS011;20145;43.118;25.694;2022-07-10T04:06:54;6.28;;;5.68;;
33844;SDS011;20145;43.118;25.694;2022-07-10T04:09:20;6.22;;;4.40;;
33844;SDS011;20145;43.118;25.694;2022-07-10T04:11:46;5.13;;;4.40;;
33844;SDS011;20145;43.118;25.694;2022-07-10T04:14:11;4.82;;;4.43;;
33844;SDS011;20145;43.118;25.694;2022-07-10T04:16:37;7.28;;;4.60;;
33844;SDS011;20145;43.118;25.694;2022-07-10T04:19:03;6.25;;;5.75;;
33844;SDS011;20145;43.118;25.694;2022-07-10T04:21:28;8.20;;;7.40;;
33844;SDS011;20145;43.118;25.694;2022-07-10T04:23:54;11.05;;;10.05;;
33844;SDS011;20145;43.118;25.694;2022-07-10T04:26:19;11.55;;;9.65;;
33844;SDS011;20145;43.118;25.694;2022-07-10T04:28:45;11.88;;;7.82;;
33844;SDS011;20145;43.118;25.694;2022-07-10T04:31:10;8.35;;;7.45;;
33844;SDS011;20145;43.118;25.694;2022-07-10T04:33:36;9.57;;;8.15;;
33844;SDS011;20145;43.118;25.694;2022-07-10T04:36:02;11.25;;;8.38;;
33844;SDS011;20145;43.118;25.694;2022-07-10T04:38:28;7.10;;;6.50;;
33844;SDS011;20145;43.118;25.694;2022-07-10T04:40:54;7.57;;;6.88;;
33844;SDS011;20145;43.118;25.694;2022-07-10T04:43:20;7.18;;;6.50;;
33844;SDS011;20145;43.118;25.694;2022-07-10T04:45:46;10.10;;;6.78;;
33844;SDS011;20145;43.118;25.694;2022-07-10T04:48:11;7.32;;;6.63;;
33844;SDS011;20145;43.118;25.694;2022-07-10T04:50:37;6.30;;;5.80;;
33844;SDS011;20145;43.118;25.694;2022-07-10T04:53:03;7.03;;;6.35;;
33844;SDS011;20145;43.118;25.694;2022-07-10T04:55:28;7.45;;;6.78;;
33844;SDS011;20145;43.118;25.694;2022-07-10T04:57:54;7.55;;;6.85;;
33844;SDS011;20145;43.118;25.694;2022-07-10T05:00:20;8.75;;;7.95;;
33844;SDS011;20145;43.118;25.694;2022-07-10T05:02:45;8.15;;;7.13;;
33844;SDS011;20145;43.118;25.694;2022-07-10T05:05:11;7.50;;;6.65;;
33844;SDS011;20145;43.118;25.694;2022-07-10T05:07:36;7.38;;;6.68;;
33844;SDS011;20145;43.118;25.694;2022-07-10T05:10:02;6.68;;;5.88;;
33844;SDS011;20145;43.118;25.694;2022-07-10T05:12:28;7.10;;;6.07;;
33844;SDS011;20145;43.118;25.694;2022-07-10T05:14:53;6.28;;;5.68;;
33844;SDS011;20145;43.118;25.694;2022-07-10T05:17:19;9.65;;;6.45;;
33844;SDS011;20145;43.118;25.694;2022-07-10T05:19:44;5.88;;;5.25;;
33844;SDS011;20145;43.118;25.694;2022-07-10T05:22:10;7.82;;;5.38;;
33844;SDS011;20145;43.118;25.694;2022-07-10T05:24:36;7.55;;;5.35;;
33844;SDS011;20145;43.118;25.694;2022-07-10T05:27:01;6.05;;;4.07;;
33844;SDS011;20145;43.118;25.694;2022-07-10T05:29:27;4.82;;;4.45;;
33844;SDS011;20145;43.118;25.694;2022-07-10T05:31:53;7.55;;;4.03;;
33844;SDS011;20145;43.118;25.694;2022-07-10T05:34:18;5.00;;;4.00;;
33844;SDS011;20145;43.118;25.694;2022-07-10T05:36:44;4.88;;;3.78;;
33844;SDS011;20145;43.118;25.694;2022-07-10T05:39:10;4.30;;;3.90;;
33844;SDS011;20145;43.118;25.694;2022-07-10T05:41:35;7.10;;;4.22;;
33844;SDS011;20145;43.118;25.694;2022-07-10T05:44:01;6.40;;;4.25;;
33844;SDS011;20145;43.118;25.694;2022-07-10T05:46:27;4.72;;;4.25;;
33844;SDS011;20145;43.118;25.694;2022-07-10T05:48:53;10.30;;;4.82;;
33844;SDS011;20145;43.118;25.694;2022-07-10T05:51:18;6.85;;;4.10;;
33844;SDS011;20145;43.118;25.694;2022-07-10T05:53:44;4.95;;;4.55;;
33844;SDS011;20145;43.118;25.694;2022-07-10T05:56:09;4.95;;;4.40;;
33844;SDS011;20145;43.118;25.694;2022-07-10T05:58:35;3.88;;;3.40;;
33844;SDS011;20145;43.118;25.694;2022-07-10T06:01:01;4.40;;;3.90;;
33844;SDS011;20145;43.118;25.694;2022-07-10T06:03:26;5.90;;;4.00;;
33844;SDS011;20145;43.118;25.694;2022-07-10T06:05:52;4.65;;;4.28;;
33844;SDS011;20145;43.118;25.694;2022-07-10T06:08:18;7.65;;;3.85;;
33844;SDS011;20145;43.118;25.694;2022-07-10T06:10:44;4.43;;;4.00;;
33844;SDS011;20145;43.118;25.694;2022-07-10T06:13:12;4.93;;;3.45;;
33844;SDS011;20145;43.118;25.694;2022-07-10T06:15:38;6.60;;;4.13;;
33844;SDS011;20145;43.118;25.694;2022-07-10T06:18:04;10.15;;;3.97;;
33844;SDS011;20145;43.118;25.694;2022-07-10T06:20:30;7.65;;;4.10;;
33844;SDS011;20145;43.118;25.694;2022-07-10T06:22:56;7.28;;;3.58;;
33844;SDS011;20145;43.118;25.694;2022-07-10T06:25:22;6.75;;;3.72;;
33844;SDS011;20145;43.118;25.694;2022-07-10T06:27:48;5.63;;;4.22;;
33844;SDS011;20145;43.118;25.694;2022-07-10T06:30:14;7.10;;;3.90;;
33844;SDS011;20145;43.118;25.694;2022-07-10T06:32:40;5.95;;;4.07;;
33844;SDS011;20145;43.118;25.694;2022-07-10T06:35:06;9.15;;;4.10;;
33844;SDS011;20145;43.118;25.694;2022-07-10T06:37:32;5.30;;;3.88;;
33844;SDS011;20145;43.118;25.694;2022-07-10T06:39:59;4.93;;;3.80;;
33844;SDS011;20145;43.118;25.694;2022-07-10T06:42:25;5.80;;;3.90;;
33844;SDS011;20145;43.118;25.694;2022-07-10T06:44:50;11.65;;;4.35;;
33844;SDS011;20145;43.118;25.694;2022-07-10T06:47:18;4.05;;;3.75;;
33844;SDS011;20145;43.118;25.694;2022-07-10T06:50:07;4.03;;;3.65;;
33844;SDS011;20145;43.118;25.694;2022-07-10T06:52:34;5.75;;;3.53;;
33844;SDS011;20145;43.118;25.694;2022-07-10T06:55:01;10.45;;;4.22;;
33844;SDS011;20145;43.118;25.694;2022-07-10T06:57:27;5.40;;;3.67;;
33844;SDS011;20145;43.118;25.694;2022-07-10T06:59:53;5.78;;;3.80;;
33844;SDS011;20145;43.118;25.694;2022-07-10T07:02:19;5.80;;;3.85;;
33844;SDS011;20145;43.118;25.694;2022-07-10T07:04:45;3.97;;;3.63;;
33844;SDS011;20145;43.118;25.694;2022-07-10T07:07:11;6.68;;;3.90;;
33844;SDS011;20145;43.118;25.694;2022-07-10T07:09:38;5.10;;;3.83;;
33844;SDS011;20145;43.118;25.694;2022-07-10T07:12:04;5.65;;;3.67;;
33844;SDS011;20145;43.118;25.694;2022-07-10T07:14:30;4.10;;;3.53;;
33844;SDS011;20145;43.118;25.694;2022-07-10T07:16:56;13.48;;;4.00;;
33844;SDS011;20145;43.118;25.694;2022-07-10T07:19:24;4.53;;;3.80;;
33844;SDS011;20145;43.118;25.694;2022-07-10T07:21:57;6.70;;;4.00;;
33844;SDS011;20145;43.118;25.694;2022-07-10T07:24:44;4.35;;;3.72;;
33844;SDS011;20145;43.118;25.694;2022-07-10T07:27:10;4.68;;;3.80;;
33844;SDS011;20145;43.118;25.694;2022-07-10T07:29:36;5.20;;;4.05;;
33844;SDS011;20145;43.118;25.694;2022-07-10T07:32:02;6.63;;;3.72;;
33844;SDS011;20145;43.118;25.694;2022-07-10T07:34:28;7.00;;;4.07;;
33844;SDS011;20145;43.118;25.694;2022-07-10T07:36:54;5.88;;;3.25;;
33844;SDS011;20145;43.118;25.694;2022-07-10T07:39:19;4.97;;;3.85;;
33844;SDS011;20145;43.118;25.694;2022-07-10T07:41:45;6.15;;;4.30;;
33844;SDS011;20145;43.118;25.694;2022-07-10T07:44:10;5.82;;;3.78;;
33844;SDS011;20145;43.118;25.694;2022-07-10T07:46:37;7.38;;;3.45;;
33844;SDS011;20145;43.118;25.694;2022-07-10T07:49:03;6.15;;;3.60;;
33844;SDS011;20145;43.118;25.694;2022-07-10T07:51:28;4.50;;;3.85;;
33844;SDS011;20145;43.118;25.694;2022-07-10T07:53:54;4.30;;;3.50;;
33844;SDS011;20145;43.118;25.694;2022-07-10T07:56:19;4.40;;;3.97;;
33844;SDS011;20145;43.118;25.694;2022-07-10T07:58:45;5.20;;;3.40;;
33844;SDS011;20145;43.118;25.694;2022-07-10T08:01:11;3.42;;;3.13;;
33844;SDS011;20145;43.118;25.694;2022-07-10T08:03:36;3.85;;;3.50;;
33844;SDS011;20145;43.118;25.694;2022-07-10T08:06:02;4.75;;;3.80;;
33844;SDS011;20145;43.118;25.694;2022-07-10T08:08:28;4.03;;;3.65;;
33844;SDS011;20145;43.118;25.694;2022-07-10T08:10:54;4.55;;;4.03;;
33844;SDS011;20145;43.118;25.694;2022-07-10T08:13:19;4.43;;;3.42;;
33844;SDS011;20145;43.118;25.694;2022-07-10T08:15:45;5.60;;;3.60;;
33844;SDS011;20145;43.118;25.694;2022-07-10T08:18:11;4.35;;;3.50;;
33844;SDS011;20145;43.118;25.694;2022-07-10T08:20:36;3.92;;;3.50;;
33844;SDS011;20145;43.118;25.694;2022-07-10T08:23:02;3.85;;;3.40;;
33844;SDS011;20145;43.118;25.694;2022-07-10T08:25:28;5.13;;;3.95;;
33844;SDS011;20145;43.118;25.694;2022-07-10T08:27:59;4.82;;;4.32;;
33844;SDS011;20145;43.118;25.694;2022-07-10T08:30:25;14.60;;;6.13;;
33844;SDS011;20145;43.118;25.694;2022-07-10T08:32:50;6.57;;;4.03;;
33844;SDS011;20145;43.118;25.694;2022-07-10T08:35:16;7.90;;;4.43;;
33844;SDS011;20145;43.118;25.694;2022-07-10T08:37:42;4.63;;;3.42;;
33844;SDS011;20145;43.118;25.694;2022-07-10T08:40:10;4.90;;;4.25;;
33844;SDS011;20145;43.118;25.694;2022-07-10T08:42:38;7.05;;;5.00;;
33844;SDS011;20145;43.118;25.694;2022-07-10T08:45:04;7.43;;;4.15;;
33844;SDS011;20145;43.118;25.694;2022-07-10T08:47:33;5.63;;;3.15;;
33844;SDS011;20145;43.118;25.694;2022-07-10T08:50:00;3.20;;;2.90;;
33844;SDS011;20145;43.118;25.694;2022-07-10T08:52:26;8.65;;;3.65;;
33844;SDS011;20145;43.118;25.694;2022-07-10T08:55:07;3.38;;;3.08;;
33844;SDS011;20145;43.118;25.694;2022-07-10T08:57:33;3.20;;;2.90;;
33844;SDS011;20145;43.118;25.694;2022-07-10T09:00:00;3.10;;;2.85;;
33844;SDS011;20145;43.118;25.694;2022-07-10T09:02:25;4.70;;;3.20;;
33844;SDS011;20145;43.118;25.694;2022-07-10T09:04:51;3.47;;;3.17;;
33844;SDS011;20145;43.118;25.694;2022-07-10T09:07:17;3.80;;;2.83;;
33844;SDS011;20145;43.118;25.694;2022-07-10T09:09:56;3.05;;;2.72;;
33844;SDS011;20145;43.118;25.694;2022-07-10T09:12:23;4.88;;;2.95;;
33844;SDS011;20145;43.118;25.694;2022-07-10T09:14:49;6.72;;;4.45;;
33844;SDS011;20145;43.118;25.694;2022-07-10T09:17:16;5.45;;;2.90;;
33844;SDS011;20145;43.118;25.694;2022-07-10T09:19:42;2.65;;;2.45;;
33844;SDS011;20145;43.118;25.694;2022-07-10T09:22:09;6.03;;;3.28;;
33844;SDS011;20145;43.118;25.694;2022-07-10T09:27:06;8.25;;;3.47;;
33844;SDS011;20145;43.118;25.694;2022-07-10T09:29:33;3.30;;;2.95;;
33844;SDS011;20145;43.118;25.694;2022-07-10T09:32:14;8.02;;;3.33;;
33844;SDS011;20145;43.118;25.694;2022-07-10T09:34:42;5.82;;;2.80;;
33844;SDS011;20145;43.118;25.694;2022-07-10T09:47:37;3.20;;;2.90;;
33844;SDS011;20145;43.118;25.694;2022-07-10T09:52:46;4.85;;;2.95;;
33844;SDS011;20145;43.118;25.694;2022-07-10T09:55:14;4.38;;;2.60;;
33844;SDS011;20145;43.118;25.694;2022-07-10T09:57:41;5.88;;;3.40;;
33844;SDS011;20145;43.118;25.694;2022-07-10T10:00:09;4.82;;;2.60;;
33844;SDS011;20145;43.118;25.694;2022-07-10T10:02:36;6.60;;;3.00;;
33844;SDS011;20145;43.118;25.694;2022-07-10T10:05:03;4.45;;;2.92;;
33844;SDS011;20145;43.118;25.694;2022-07-10T10:07:30;4.00;;;3.08;;
33844;SDS011;20145;43.118;25.694;2022-07-10T10:10:00;4.18;;;2.95;;
33844;SDS011;20145;43.118;25.694;2022-07-10T10:12:34;5.75;;;3.13;;
33844;SDS011;20145;43.118;25.694;2022-07-10T10:15:10;7.97;;;3.83;;
33844;SDS011;20145;43.118;25.694;2022-07-10T10:17:36;7.88;;;2.88;;
33844;SDS011;20145;43.118;25.694;2022-07-10T10:20:05;5.05;;;3.05;;
33844;SDS011;20145;43.118;25.694;2022-07-10T10:22:52;3.55;;;2.60;;
33844;SDS011;20145;43.118;25.694;2022-07-10T10:25:20;4.93;;;3.00;;
33844;SDS011;20145;43.118;25.694;2022-07-10T10:27:49;4.32;;;2.85;;
33844;SDS011;20145;43.118;25.694;2022-07-10T10:30:15;4.75;;;3.00;;
33844;SDS011;20145;43.118;25.694;2022-07-10T10:32:41;3.13;;;2.90;;
33844;SDS011;20145;43.118;25.694;2022-07-10T10:35:07;5.20;;;3.60;;
33844;SDS011;20145;43.118;25.694;2022-07-10T10:37:37;4.00;;;2.95;;
33844;SDS011;20145;43.118;25.694;2022-07-10T10:40:03;4.55;;;3.03;;
33844;SDS011;20145;43.118;25.694;2022-07-10T10:42:33;7.25;;;2.90;;
33844;SDS011;20145;43.118;25.694;2022-07-10T10:48:07;4.95;;;2.75;;
33844;SDS011;20145;43.118;25.694;2022-07-10T10:50:38;4.90;;;3.20;;
33844;SDS011;20145;43.118;25.694;2022-07-10T10:53:20;6.65;;;3.22;;
33844;SDS011;20145;43.118;25.694;2022-07-10T10:58:25;3.63;;;2.50;;
33844;SDS011;20145;43.118;25.694;2022-07-10T11:06:44;4.28;;;2.90;;
33844;SDS011;20145;43.118;25.694;2022-07-10T11:09:23;4.57;;;3.47;;
33844;SDS011;20145;43.118;25.694;2022-07-10T11:14:34;3.13;;;2.83;;
33844;SDS011;20145;43.118;25.694;2022-07-10T11:17:04;3.58;;;2.50;;
33844;SDS011;20145;43.118;25.694;2022-07-10T11:19:31;7.07;;;2.67;;
33844;SDS011;20145;43.118;25.694;2022-07-10T11:22:25;3.75;;;2.85;;
33844;SDS011;20145;43.118;25.694;2022-07-10T11:28:07;4.25;;;2.53;;
33844;SDS011;20145;43.118;25.694;2022-07-10T11:30:51;4.03;;;2.75;;
33844;SDS011;20145;43.118;25.694;2022-07-10T11:33:18;2.45;;;2.25;;
33844;SDS011;20145;43.118;25.694;2022-07-10T11:35:50;7.10;;;2.75;;
33844;SDS011;20145;43.118;25.694;2022-07-10T11:38:21;6.63;;;3.10;;
33844;SDS011;20145;43.118;25.694;2022-07-10T11:40:51;3.95;;;2.45;;
33844;SDS011;20145;43.118;25.694;2022-07-10T11:43:30;3.60;;;2.75;;
33844;SDS011;20145;43.118;25.694;2022-07-10T11:54:45;3.97;;;2.78;;
33844;SDS011;20145;43.118;25.694;2022-07-10T11:57:27;2.75;;;2.55;;
33844;SDS011;20145;43.118;25.694;2022-07-10T11:59:55;4.00;;;2.72;;
33844;SDS011;20145;43.118;25.694;2022-07-10T12:02:25;5.25;;;3.38;;
33844;SDS011;20145;43.118;25.694;2022-07-10T12:08:05;3.40;;;3.10;;
33844;SDS011;20145;43.118;25.694;2022-07-10T12:10:31;3.38;;;3.00;;
33844;SDS011;20145;43.118;25.694;2022-07-10T12:13:05;3.53;;;3.22;;
33844;SDS011;20145;43.118;25.694;2022-07-10T12:18:21;4.28;;;3.33;;
33844;SDS011;20145;43.118;25.694;2022-07-10T12:20:48;6.68;;;3.80;;
33844;SDS011;20145;43.118;25.694;2022-07-10T12:23:18;5.32;;;3.60;;
33844;SDS011;20145;43.118;25.694;2022-07-10T12:25:46;6.10;;;3.67;;
33844;SDS011;20145;43.118;25.694;2022-07-10T12:28:14;4.72;;;3.90;;
33844;SDS011;20145;43.118;25.694;2022-07-10T12:33:13;13.45;;;5.20;;
33844;SDS011;20145;43.118;25.694;2022-07-10T12:38:18;27.67;;;6.60;;
33844;SDS011;20145;43.118;25.694;2022-07-10T12:40:46;13.15;;;5.30;;
33844;SDS011;20145;43.118;25.694;2022-07-10T12:43:12;9.45;;;5.40;;
33844;SDS011;20145;43.118;25.694;2022-07-10T12:49:00;10.05;;;3.90;;
33844;SDS011;20145;43.118;25.694;2022-07-10T12:54:06;3.78;;;3.47;;
33844;SDS011;20145;43.118;25.694;2022-07-10T12:56:35;5.20;;;4.10;;
33844;SDS011;20145;43.118;25.694;2022-07-10T13:01:40;7.00;;;4.20;;
33844;SDS011;20145;43.118;25.694;2022-07-10T13:04:06;4.28;;;3.88;;
33844;SDS011;20145;43.118;25.694;2022-07-10T13:06:34;4.40;;;3.80;;
33844;SDS011;20145;43.118;25.694;2022-07-10T13:09:01;3.88;;;3.58;;
33844;SDS011;20145;43.118;25.694;2022-07-10T13:11:28;4.47;;;4.07;;
33844;SDS011;20145;43.118;25.694;2022-07-10T13:13:56;4.22;;;3.83;;
33844;SDS011;20145;43.118;25.694;2022-07-10T13:16:21;5.72;;;4.00;;
33844;SDS011;20145;43.118;25.694;2022-07-10T13:18:49;4.97;;;3.47;;
33844;SDS011;20145;43.118;25.694;2022-07-10T13:21:15;4.60;;;3.55;;
33844;SDS011;20145;43.118;25.694;2022-07-10T13:23:41;4.13;;;3.30;;
33844;SDS011;20145;43.118;25.694;2022-07-10T13:26:08;5.28;;;3.08;;
33844;SDS011;20145;43.118;25.694;2022-07-10T13:28:34;3.83;;;3.53;;
33844;SDS011;20145;43.118;25.694;2022-07-10T13:30:59;4.60;;;3.03;;
33844;SDS011;20145;43.118;25.694;2022-07-10T13:33:25;3.55;;;3.25;;
33844;SDS011;20145;43.118;25.694;2022-07-10T13:35:51;3.65;;;3.33;;
33844;SDS011;20145;43.118;25.694;2022-07-10T13:38:17;3.10;;;2.80;;
33844;SDS011;20145;43.118;25.694;2022-07-10T13:40:43;3.10;;;2.80;;
33844;SDS011;20145;43.118;25.694;2022-07-10T13:43:11;4.78;;;3.10;;
33844;SDS011;20145;43.118;25.694;2022-07-10T13:45:37;3.47;;;3.17;;
33844;SDS011;20145;43.118;25.694;2022-07-10T13:48:11;4.47;;;3.67;;
33844;SDS011;20145;43.118;25.694;2022-07-10T13:50:40;4.15;;;3.55;;
33844;SDS011;20145;43.118;25.694;2022-07-10T13:53:06;4.22;;;3.83;;
33844;SDS011;20145;43.118;25.694;2022-07-10T13:55:33;4.25;;;3.85;;
33844;SDS011;20145;43.118;25.694;2022-07-10T13:57:59;4.88;;;4.03;;
33844;SDS011;20145;43.118;25.694;2022-07-10T14:00:25;4.18;;;3.78;;
33844;SDS011;20145;43.118;25.694;2022-07-10T14:02:50;5.90;;;3.60;;
33844;SDS011;20145;43.118;25.694;2022-07-10T14:05:16;3.15;;;2.95;;
33844;SDS011;20145;43.118;25.694;2022-07-10T14:07:42;3.88;;;2.78;;
33844;SDS011;20145;43.118;25.694;2022-07-10T14:10:07;3.70;;;2.78;;
33844;SDS011;20145;43.118;25.694;2022-07-10T14:12:33;3.88;;;3.20;;
33844;SDS011;20145;43.118;25.694;2022-07-10T14:14:59;10.23;;;5.07;;
33844;SDS011;20145;43.118;25.694;2022-07-10T14:17:25;5.05;;;4.13;;
33844;SDS011;20145;43.118;25.694;2022-07-10T14:19:53;4.50;;;3.13;;
33844;SDS011;20145;43.118;25.694;2022-07-10T14:22:19;3.45;;;3.15;;
33844;SDS011;20145;43.118;25.694;2022-07-10T14:24:44;4.35;;;3.60;;
33844;SDS011;20145;43.118;25.694;2022-07-10T14:27:10;3.15;;;2.88;;
33844;SDS011;20145;43.118;25.694;2022-07-10T14:29:36;4.07;;;3.40;;
33844;SDS011;20145;43.118;25.694;2022-07-10T14:32:01;5.80;;;3.33;;
33844;SDS011;20145;43.118;25.694;2022-07-10T14:34:27;3.58;;;3.25;;
33844;SDS011;20145;43.118;25.694;2022-07-10T14:36:54;3.47;;;3.20;;
33844;SDS011;20145;43.118;25.694;2022-07-10T14:39:20;4.00;;;2.92;;
33844;SDS011;20145;43.118;25.694;2022-07-10T14:41:46;4.53;;;3.13;;
33844;SDS011;20145;43.118;25.694;2022-07-10T14:44:11;3.55;;;3.17;;
33844;SDS011;20145;43.118;25.694;2022-07-10T14:46:37;3.88;;;3.22;;
33844;SDS011;20145;43.118;25.694;2022-07-10T14:49:03;4.13;;;2.75;;
33844;SDS011;20145;43.118;25.694;2022-07-10T14:51:28;4.03;;;2.88;;
33844;SDS011;20145;43.118;25.694;2022-07-10T14:53:54;3.60;;;3.10;;
33844;SDS011;20145;43.118;25.694;2022-07-10T14:56:21;6.82;;;3.30;;
33844;SDS011;20145;43.118;25.694;2022-07-10T14:58:47;6.43;;;3.10;;
33844;SDS011;20145;43.118;25.694;2022-07-10T15:01:13;4.22;;;3.60;;
33844;SDS011;20145;43.118;25.694;2022-07-10T15:03:39;6.45;;;3.78;;
33844;SDS011;20145;43.118;25.694;2022-07-10T15:06:05;5.53;;;3.65;;
33844;SDS011;20145;43.118;25.694;2022-07-10T15:08:31;4.10;;;3.70;;
33844;SDS011;20145;43.118;25.694;2022-07-10T15:10:57;6.10;;;3.58;;
33844;SDS011;20145;43.118;25.694;2022-07-10T15:13:26;4.38;;;3.38;;
33844;SDS011;20145;43.118;25.694;2022-07-10T15:15:52;6.55;;;3.80;;
33844;SDS011;20145;43.118;25.694;2022-07-10T15:18:18;7.60;;;5.60;;
33844;SDS011;20145;43.118;25.694;2022-07-10T15:20:44;6.22;;;4.15;;
33844;SDS011;20145;43.118;25.694;2022-07-10T15:23:10;3.78;;;3.40;;
33844;SDS011;20145;43.118;25.694;2022-07-10T15:25:36;4.10;;;3.70;;
33844;SDS011;20145;43.118;25.694;2022-07-10T15:28:05;5.85;;;4.47;;
33844;SDS011;20145;43.118;25.694;2022-07-10T15:30:36;5.88;;;4.65;;
33844;SDS011;20145;43.118;25.694;2022-07-10T15:33:03;6.05;;;3.72;;